X  Sluiten METAR luchtvaart weer gegevens      EBAW Antwerp International Airport (Deurne)
Temperatuur
17°C Temperatuur
14°C Dauwpunt
83% Vochtigheid



Wind
2 KM/U
1 MPH
0 M/S
1 KTS



Kalm
Noord
Huidig weer

Geheel bewolkt Geheel bewolkt
Luchtdruk 1015.92 (hPa) - 30 (inHg)
Zicht 6 (mijl) - 9.7 (km)
Vliegveld
Vliegveld code EBAW

Locatie : Antwerp International Airport (Deurne)
Afstand: 90 (km)

Metar:
EBAW 250250Z AUTO VRB01KT 9999 // VV/// 17/14 Q1016

Tijd: 25-06-2024 02:50 CEST